sensor_id;sensor_type;location;lat;lon;timestamp;pressure;altitude;pressure_sealevel;temperature;humidity
43326;BME280;28920;59.862;30.636;2023-02-12T18:43:55;51783.63;;;-147.45;100.00
43326;BME280;28920;59.862;30.636;2023-02-12T18:46:24;51789.69;;;-147.45;100.00
43326;BME280;28920;59.862;30.636;2023-02-12T18:48:52;51813.94;;;-147.45;100.00
43326;BME280;28920;59.862;30.636;2023-02-12T18:51:22;51785.62;;;-147.45;100.00
43326;BME280;28920;59.862;30.636;2023-02-12T18:53:53;51787.66;;;-147.45;100.00
43326;BME280;28920;59.862;30.636;2023-02-12T18:56:20;51811.94;;;-147.45;100.00
43326;BME280;28920;59.862;30.636;2023-02-12T18:58:54;51797.78;;;-147.45;100.00
43326;BME280;28920;59.862;30.636;2023-02-12T19:01:23;51824.06;;;-147.45;100.00
43326;BME280;28920;59.862;30.636;2023-02-12T19:03:53;51771.47;;;-147.45;100.00
43326;BME280;28920;59.862;30.636;2023-02-12T19:06:21;51771.47;;;-147.45;100.00
43326;BME280;28920;59.862;30.636;2023-02-12T19:08:52;60944.00;;;-147.45;100.00
43326;BME280;28920;59.862;30.636;2023-02-12T19:11:19;60944.00;;;-147.45;100.00
43326;BME280;28920;59.862;30.636;2023-02-12T19:13:47;60944.00;;;-147.45;100.00
43326;BME280;28920;59.862;30.636;2023-02-12T19:16:16;60944.00;;;-147.45;100.00
43326;BME280;28920;59.862;30.636;2023-02-12T19:18:47;60944.00;;;-147.45;100.00
43326;BME280;28920;59.862;30.636;2023-02-12T19:21:16;60944.00;;;-147.45;100.00
43326;BME280;28920;59.862;30.636;2023-02-12T19:23:43;60944.00;;;-147.45;100.00
43326;BME280;28920;59.862;30.636;2023-02-12T19:26:15;60944.00;;;-147.45;100.00
43326;BME280;28920;59.862;30.636;2023-02-12T19:28:43;60944.00;;;-147.45;100.00
43326;BME280;28920;59.862;30.636;2023-02-12T19:31:11;60944.00;;;-147.45;100.00
43326;BME280;28920;59.862;30.636;2023-02-12T19:33:39;60944.00;;;-147.45;100.00
43326;BME280;28920;59.862;30.636;2023-02-12T19:36:08;60944.00;;;-147.45;100.00
43326;BME280;28920;59.862;30.636;2023-02-12T19:38:37;60944.00;;;-147.45;100.00
43326;BME280;28920;59.862;30.636;2023-02-12T19:41:38;60944.00;;;-147.45;100.00
43326;BME280;28920;59.862;30.636;2023-02-12T19:44:10;60944.00;;;-147.45;100.00
43326;BME280;28920;59.862;30.636;2023-02-12T19:46:37;60944.00;;;-147.45;100.00
43326;BME280;28920;59.862;30.636;2023-02-12T19:49:11;60944.00;;;-147.45;100.00
43326;BME280;28920;59.862;30.636;2023-02-12T19:51:39;60944.00;;;-147.45;100.00
43326;BME280;28920;59.862;30.636;2023-02-12T19:54:08;60944.00;;;-147.45;100.00
43326;BME280;28920;59.862;30.636;2023-02-12T19:56:36;60944.00;;;-147.45;100.00
43326;BME280;28920;59.862;30.636;2023-02-12T19:59:04;60944.00;;;-147.45;100.00
43326;BME280;28920;59.862;30.636;2023-02-12T20:01:32;60944.00;;;-147.45;100.00
43326;BME280;28920;59.862;30.636;2023-02-12T20:04:01;60944.00;;;-147.45;100.00
43326;BME280;28920;59.862;30.636;2023-02-12T20:06:32;60944.00;;;-147.45;100.00
43326;BME280;28920;59.862;30.636;2023-02-12T20:08:59;60944.00;;;-147.45;100.00
43326;BME280;28920;59.862;30.636;2023-02-12T20:11:29;60944.00;;;-147.45;100.00
43326;BME280;28920;59.862;30.636;2023-02-12T20:13:57;60944.00;;;-147.45;100.00
43326;BME280;28920;59.862;30.636;2023-02-12T20:16:26;60944.00;;;-147.45;100.00
43326;BME280;28920;59.862;30.636;2023-02-12T20:19:00;60944.00;;;-147.45;100.00
43326;BME280;28920;59.862;30.636;2023-02-12T20:21:28;60944.00;;;-147.45;100.00
43326;BME280;28920;59.862;30.636;2023-02-12T20:23:56;60944.00;;;-147.45;100.00
43326;BME280;28920;59.862;30.636;2023-02-12T20:26:24;60944.00;;;-147.45;100.00
43326;BME280;28920;59.862;30.636;2023-02-12T20:28:51;60944.00;;;-147.45;100.00
43326;BME280;28920;59.862;30.636;2023-02-12T20:31:20;60944.00;;;-147.45;100.00
43326;BME280;28920;59.862;30.636;2023-02-12T20:33:52;60944.00;;;-147.45;100.00
43326;BME280;28920;59.862;30.636;2023-02-12T20:36:20;60944.00;;;-147.45;100.00
43326;BME280;28920;59.862;30.636;2023-02-12T20:38:50;60944.00;;;-147.45;100.00
43326;BME280;28920;59.862;30.636;2023-02-12T20:41:19;60944.00;;;-147.45;100.00
43326;BME280;28920;59.862;30.636;2023-02-12T20:43:46;60944.00;;;-147.45;100.00
43326;BME280;28920;59.862;30.636;2023-02-12T20:46:16;60944.00;;;-147.45;100.00
43326;BME280;28920;59.862;30.636;2023-02-12T20:48:43;60944.00;;;-147.45;100.00
43326;BME280;28920;59.862;30.636;2023-02-12T20:51:14;60944.00;;;-147.45;100.00
43326;BME280;28920;59.862;30.636;2023-02-12T20:53:42;60944.00;;;-147.45;100.00
43326;BME280;28920;59.862;30.636;2023-02-12T20:56:11;60944.00;;;-147.45;100.00
43326;BME280;28920;59.862;30.636;2023-02-12T20:58:40;60944.00;;;-147.45;100.00
43326;BME280;28920;59.862;30.636;2023-02-12T21:01:12;60944.00;;;-147.45;100.00
43326;BME280;28920;59.862;30.636;2023-02-12T21:03:40;60944.00;;;-147.45;100.00
43326;BME280;28920;59.862;30.636;2023-02-12T21:06:07;60944.00;;;-147.45;100.00
43326;BME280;28920;59.862;30.636;2023-02-12T21:08:35;60944.00;;;-147.45;100.00
43326;BME280;28920;59.862;30.636;2023-02-12T21:11:05;60944.00;;;-147.45;100.00
43326;BME280;28920;59.862;30.636;2023-02-12T21:13:33;60944.00;;;-147.45;100.00
43326;BME280;28920;59.862;30.636;2023-02-12T21:16:06;60944.00;;;-147.45;100.00
43326;BME280;28920;59.862;30.636;2023-02-12T21:18:34;60944.00;;;-147.45;100.00
43326;BME280;28920;59.862;30.636;2023-02-12T21:21:04;60944.00;;;-147.45;100.00
43326;BME280;28920;59.862;30.636;2023-02-12T21:23:31;60944.00;;;-147.45;100.00
43326;BME280;28920;59.862;30.636;2023-02-12T21:26:00;60944.00;;;-147.45;100.00
43326;BME280;28920;59.862;30.636;2023-02-12T21:28:28;60944.00;;;-147.45;100.00
43326;BME280;28920;59.862;30.636;2023-02-12T21:30:55;60944.00;;;-147.45;100.00
43326;BME280;28920;59.862;30.636;2023-02-12T21:33:23;60944.00;;;-147.45;100.00
43326;BME280;28920;59.862;30.636;2023-02-12T21:35:50;60944.00;;;-147.45;100.00
43326;BME280;28920;59.862;30.636;2023-02-12T21:38:17;60944.00;;;-147.45;100.00
43326;BME280;28920;59.862;30.636;2023-02-12T21:40:45;60944.00;;;-147.45;100.00
43326;BME280;28920;59.862;30.636;2023-02-12T21:43:12;60944.00;;;-147.45;100.00
43326;BME280;28920;59.862;30.636;2023-02-12T21:45:48;60944.00;;;-147.45;100.00
43326;BME280;28920;59.862;30.636;2023-02-12T21:48:16;60944.00;;;-147.45;100.00
43326;BME280;28920;59.862;30.636;2023-02-12T21:50:44;60944.00;;;-147.45;100.00
43326;BME280;28920;59.862;30.636;2023-02-12T21:53:12;60944.00;;;-147.45;100.00
43326;BME280;28920;59.862;30.636;2023-02-12T21:55:40;60944.00;;;-147.45;100.00
43326;BME280;28920;59.862;30.636;2023-02-12T21:58:07;60944.00;;;-147.45;100.00
43326;BME280;28920;59.862;30.636;2023-02-12T22:00:34;60944.00;;;-147.45;100.00
43326;BME280;28920;59.862;30.636;2023-02-12T22:03:01;60944.00;;;-147.45;100.00
43326;BME280;28920;59.862;30.636;2023-02-12T22:05:30;60944.00;;;-147.45;100.00
43326;BME280;28920;59.862;30.636;2023-02-12T22:07:59;60944.00;;;-147.45;100.00
43326;BME280;28920;59.862;30.636;2023-02-12T22:10:27;60944.00;;;-147.45;100.00
43326;BME280;28920;59.862;30.636;2023-02-12T22:12:55;60944.00;;;-147.45;100.00
43326;BME280;28920;59.862;30.636;2023-02-12T22:15:22;60944.00;;;-147.45;100.00
43326;BME280;28920;59.862;30.636;2023-02-12T22:17:49;60944.00;;;-147.45;100.00
43326;BME280;28920;59.862;30.636;2023-02-12T22:20:17;60944.00;;;-147.45;100.00
43326;BME280;28920;59.862;30.636;2023-02-12T22:22:44;60944.00;;;-147.45;100.00
43326;BME280;28920;59.862;30.636;2023-02-12T22:25:12;60944.00;;;-147.45;100.00
43326;BME280;28920;59.862;30.636;2023-02-12T22:27:39;60944.00;;;-147.45;100.00
43326;BME280;28920;59.862;30.636;2023-02-12T22:30:07;60944.00;;;-147.45;100.00
43326;BME280;28920;59.862;30.636;2023-02-12T22:32:35;60944.00;;;-147.45;100.00
43326;BME280;28920;59.862;30.636;2023-02-12T22:35:02;60944.00;;;-147.45;100.00
43326;BME280;28920;59.862;30.636;2023-02-12T22:37:29;60944.00;;;-147.45;100.00
43326;BME280;28920;59.862;30.636;2023-02-12T22:39:57;60944.00;;;-147.45;100.00
43326;BME280;28920;59.862;30.636;2023-02-12T22:42:25;60944.00;;;-147.45;100.00
43326;BME280;28920;59.862;30.636;2023-02-12T22:44:52;60944.00;;;-147.45;100.00
43326;BME280;28920;59.862;30.636;2023-02-12T22:47:21;60944.00;;;-147.45;100.00
43326;BME280;28920;59.862;30.636;2023-02-12T22:49:48;60944.00;;;-147.45;100.00
43326;BME280;28920;59.862;30.636;2023-02-12T22:52:16;60944.00;;;-147.45;100.00
43326;BME280;28920;59.862;30.636;2023-02-12T22:54:43;60944.00;;;-147.45;100.00
43326;BME280;28920;59.862;30.636;2023-02-12T22:57:10;60944.00;;;-147.45;100.00
43326;BME280;28920;59.862;30.636;2023-02-12T22:59:38;60944.00;;;-147.45;100.00
43326;BME280;28920;59.862;30.636;2023-02-12T23:02:05;60944.00;;;-147.45;100.00
43326;BME280;28920;59.862;30.636;2023-02-12T23:04:33;60944.00;;;-147.45;100.00
43326;BME280;28920;59.862;30.636;2023-02-12T23:07:00;60944.00;;;-147.45;100.00
43326;BME280;28920;59.862;30.636;2023-02-12T23:09:27;60944.00;;;-147.45;100.00
43326;BME280;28920;59.862;30.636;2023-02-12T23:11:54;60944.00;;;-147.45;100.00
43326;BME280;28920;59.862;30.636;2023-02-12T23:14:22;60944.00;;;-147.45;100.00
43326;BME280;28920;59.862;30.636;2023-02-12T23:16:50;60944.00;;;-147.45;100.00
43326;BME280;28920;59.862;30.636;2023-02-12T23:19:17;60944.00;;;-147.45;100.00
43326;BME280;28920;59.862;30.636;2023-02-12T23:21:44;60944.00;;;-147.45;100.00
43326;BME280;28920;59.862;30.636;2023-02-12T23:24:13;60944.00;;;-147.45;100.00
43326;BME280;28920;59.862;30.636;2023-02-12T23:26:40;60944.00;;;-147.45;100.00
43326;BME280;28920;59.862;30.636;2023-02-12T23:29:07;60944.00;;;-147.45;100.00
43326;BME280;28920;59.862;30.636;2023-02-12T23:31:35;60944.00;;;-147.45;100.00
43326;BME280;28920;59.862;30.636;2023-02-12T23:34:03;60944.00;;;-147.45;100.00
43326;BME280;28920;59.862;30.636;2023-02-12T23:36:30;60944.00;;;-147.45;100.00
43326;BME280;28920;59.862;30.636;2023-02-12T23:38:58;60944.00;;;-147.45;100.00
43326;BME280;28920;59.862;30.636;2023-02-12T23:41:25;60944.00;;;-147.45;100.00
43326;BME280;28920;59.862;30.636;2023-02-12T23:43:53;60944.00;;;-147.45;100.00
43326;BME280;28920;59.862;30.636;2023-02-12T23:46:20;60944.00;;;-147.45;100.00
43326;BME280;28920;59.862;30.636;2023-02-12T23:48:47;60944.00;;;-147.45;100.00
43326;BME280;28920;59.862;30.636;2023-02-12T23:51:15;60944.00;;;-147.45;100.00
43326;BME280;28920;59.862;30.636;2023-02-12T23:53:42;60944.00;;;-147.45;100.00
43326;BME280;28920;59.862;30.636;2023-02-12T23:56:10;60944.00;;;-147.45;100.00
43326;BME280;28920;59.862;30.636;2023-02-12T23:58:37;60944.00;;;-147.45;100.00
